createdAt,value
2023-05-15T00:00:34.170Z,87.77
2023-05-15T00:03:02.521Z,86.11
2023-05-15T00:05:29.961Z,88.85
2023-05-15T00:07:57.441Z,88.18
2023-05-15T00:10:25.141Z,88.28
2023-05-15T00:12:52.544Z,87.11
2023-05-15T00:15:19.946Z,85.19
2023-05-15T00:17:47.610Z,86.44
2023-05-15T00:20:15.635Z,84.57
2023-05-15T00:22:44.465Z,84.37
2023-05-15T00:25:14.481Z,83.08
2023-05-15T00:27:41.910Z,82.69
2023-05-15T00:30:09.700Z,86.21
2023-05-15T00:32:37.440Z,87.34
2023-05-15T00:35:05.378Z,84.83
2023-05-15T00:37:32.869Z,85.23
2023-05-15T00:40:00.944Z,83.92
2023-05-15T00:42:29.154Z,85.45
2023-05-15T00:44:57.120Z,85.47
2023-05-15T00:47:26.791Z,84.51
2023-05-15T00:49:54.573Z,83.97
2023-05-15T00:52:22.233Z,86.69
2023-05-15T00:54:50.039Z,82.94
2023-05-15T00:57:18.205Z,81.88
2023-05-15T00:59:45.634Z,83.10
2023-05-15T01:02:16.051Z,82.64
2023-05-15T01:04:43.503Z,82.04
2023-05-15T01:07:11.008Z,81.49
2023-05-15T01:09:42.241Z,82.52
2023-05-15T01:12:10.126Z,84.71
2023-05-15T01:14:37.630Z,83.34
2023-05-15T01:17:06.897Z,82.03
2023-05-15T01:19:36.143Z,80.64
2023-05-15T01:22:12.672Z,82.72
2023-05-15T01:24:59.887Z,81.15
2023-05-15T01:27:41.982Z,83.34
2023-05-15T01:30:23.669Z,83.73
2023-05-15T01:33:00.007Z,86.06
2023-05-15T01:35:51.834Z,86.53
2023-05-15T01:38:32.734Z,87.36
2023-05-15T01:41:06.747Z,86.28
2023-05-15T01:43:35.505Z,86.64
2023-05-15T01:46:04.063Z,85.87
2023-05-15T01:48:33.560Z,84.03
2023-05-15T01:51:03.786Z,82.17
2023-05-15T01:53:32.989Z,83.44
2023-05-15T01:56:00.453Z,83.54
2023-05-15T01:58:28.317Z,82.30
2023-05-15T02:00:56.655Z,81.63
2023-05-15T02:03:24.849Z,81.64
2023-05-15T02:05:53.636Z,80.11
2023-05-15T02:08:21.746Z,80.08
2023-05-15T02:10:49.736Z,79.20
2023-05-15T02:13:20.270Z,79.47
2023-05-15T02:15:48.071Z,79.81
2023-05-15T02:18:15.751Z,79.10
2023-05-15T02:20:43.435Z,80.46
2023-05-15T02:23:11.199Z,79.64
2023-05-15T02:26:04.673Z,77.84
2023-05-15T02:28:39.966Z,78.74
2023-05-15T02:31:26.993Z,78.56
2023-05-15T02:34:18.651Z,77.52
2023-05-15T02:36:48.899Z,77.42
2023-05-15T02:39:17.628Z,77.58
2023-05-15T02:41:46.969Z,77.46
2023-05-15T02:44:17.964Z,77.35
2023-05-15T02:46:47.551Z,76.78
2023-05-15T02:49:15.637Z,76.49
2023-05-15T02:51:43.171Z,76.48
2023-05-15T02:54:11.590Z,76.56
2023-05-15T02:56:39.000Z,75.90
2023-05-15T02:59:06.538Z,76.05
2023-05-15T03:01:34.305Z,75.81
2023-05-15T03:04:02.664Z,75.43
2023-05-15T03:06:31.692Z,75.79
2023-05-15T03:08:59.396Z,75.51
2023-05-15T03:11:26.789Z,76.33
2023-05-15T03:13:54.167Z,77.09
2023-05-15T03:16:21.847Z,76.52
2023-05-15T03:18:49.407Z,76.38
2023-05-15T03:21:17.746Z,76.76
2023-05-15T03:23:45.537Z,78.72
2023-05-15T03:26:13.023Z,77.72
2023-05-15T03:28:42.184Z,77.70
2023-05-15T03:31:10.141Z,77.05
2023-05-15T03:33:38.297Z,77.90
2023-05-15T03:36:06.553Z,76.89
2023-05-15T03:38:34.223Z,77.08
2023-05-15T03:41:01.593Z,76.98
2023-05-15T03:43:30.295Z,76.64
2023-05-15T03:45:59.198Z,76.53
2023-05-15T03:48:26.604Z,76.29
2023-05-15T03:50:54.214Z,76.06
2023-05-15T03:53:21.941Z,76.08
2023-05-15T03:55:49.366Z,75.96
2023-05-15T03:58:16.754Z,75.42
2023-05-15T04:00:44.455Z,75.86
2023-05-15T04:03:12.216Z,75.47
2023-05-15T04:05:39.699Z,73.86
2023-05-15T04:08:07.133Z,75.53
2023-05-15T04:10:34.848Z,75.99
2023-05-15T04:13:02.253Z,75.74
2023-05-15T04:15:29.838Z,75.12
2023-05-15T04:17:57.569Z,74.92
2023-05-15T04:20:25.201Z,75.49
2023-05-15T04:22:52.879Z,75.53
2023-05-15T04:25:20.855Z,77.00
2023-05-15T04:27:49.366Z,75.65
2023-05-15T04:30:18.378Z,75.37
2023-05-15T04:32:46.045Z,75.13
2023-05-15T04:35:15.059Z,75.46
2023-05-15T04:37:43.598Z,74.96
2023-05-15T04:40:12.234Z,75.07
2023-05-15T04:42:39.811Z,74.36
2023-05-15T04:45:08.066Z,74.61
2023-05-15T04:47:36.357Z,74.24
2023-05-15T04:50:04.043Z,74.25
2023-05-15T04:52:32.322Z,74.22
2023-05-15T04:55:00.061Z,74.16
2023-05-15T04:57:27.662Z,74.29
2023-05-15T04:59:55.079Z,74.33
2023-05-15T05:02:23.248Z,73.38
2023-05-15T05:04:51.018Z,75.21
2023-05-15T05:07:18.428Z,75.88
2023-05-15T05:09:46.131Z,75.38
2023-05-15T05:12:14.169Z,75.01
2023-05-15T05:14:42.221Z,76.85
2023-05-15T05:17:10.214Z,76.04
2023-05-15T05:19:37.590Z,77.21
2023-05-15T05:22:06.025Z,76.75
2023-05-15T05:24:37.712Z,76.71
2023-05-15T05:27:05.747Z,77.53
2023-05-15T05:29:33.338Z,77.45
2023-05-15T05:32:01.416Z,77.12
2023-05-15T05:34:30.416Z,76.80
2023-05-15T05:36:57.862Z,75.87
2023-05-15T05:39:25.689Z,75.51
2023-05-15T05:41:53.147Z,76.30
2023-05-15T05:44:20.600Z,78.69
2023-05-15T05:46:48.297Z,78.83
2023-05-15T05:49:15.769Z,77.06
2023-05-15T05:51:44.936Z,77.39
2023-05-15T05:54:14.935Z,79.92
2023-05-15T05:56:42.833Z,81.07
2023-05-15T05:59:10.444Z,81.45
2023-05-15T06:01:38.162Z,78.66
2023-05-15T06:04:06.052Z,79.13
2023-05-15T06:06:34.592Z,79.01
2023-05-15T06:09:02.283Z,77.42
2023-05-15T06:11:30.002Z,78.06
2023-05-15T06:13:57.410Z,77.44
2023-05-15T06:16:24.835Z,78.09
2023-05-15T06:18:53.121Z,78.08
2023-05-15T06:21:22.372Z,78.40
2023-05-15T06:23:49.997Z,78.24
2023-05-15T06:26:17.966Z,77.09
2023-05-15T06:28:45.355Z,75.99
2023-05-15T06:31:12.763Z,75.47
2023-05-15T06:33:40.545Z,75.55
2023-05-15T06:36:08.062Z,75.05
2023-05-15T06:38:36.072Z,74.95
2023-05-15T06:41:03.961Z,74.01
2023-05-15T06:43:31.369Z,73.51
2023-05-15T06:45:59.194Z,72.67
2023-05-15T06:48:26.826Z,72.62
2023-05-15T06:50:54.253Z,72.89
2023-05-15T06:53:22.748Z,73.56
2023-05-15T06:55:50.398Z,72.83
2023-05-15T06:58:18.100Z,72.18
2023-05-15T07:00:45.570Z,71.47
2023-05-15T07:03:14.516Z,70.78
2023-05-15T07:05:42.375Z,71.26
2023-05-15T07:08:09.797Z,70.14
2023-05-15T07:10:37.491Z,70.13
2023-05-15T07:13:04.896Z,70.24
2023-05-15T07:15:32.317Z,69.88
2023-05-15T07:18:00.011Z,70.50
2023-05-15T07:20:30.303Z,71.90
2023-05-15T07:22:59.965Z,71.24
2023-05-15T07:25:27.603Z,71.85
2023-05-15T07:27:55.229Z,71.82
2023-05-15T07:30:23.443Z,70.68
2023-05-15T07:32:50.983Z,70.38
2023-05-15T07:35:18.530Z,69.59
2023-05-15T07:37:46.754Z,69.47
2023-05-15T07:40:15.474Z,70.65
2023-05-15T07:42:44.170Z,70.75
2023-05-15T07:45:11.967Z,69.61
2023-05-15T07:47:42.799Z,70.04
2023-05-15T07:50:10.598Z,69.93
2023-05-15T07:52:38.289Z,70.38
2023-05-15T07:55:07.478Z,69.31
2023-05-15T10:34:14.531Z,61.96
2023-05-15T10:36:43.178Z,64.11
2023-05-15T10:39:11.052Z,62.77
2023-05-15T10:41:39.757Z,62.63
2023-05-15T10:44:07.520Z,62.38
2023-05-15T10:46:36.150Z,62.82
2023-05-15T10:49:04.508Z,61.79
2023-05-15T10:51:33.556Z,62.92
2023-05-15T10:54:03.711Z,62.84
2023-05-15T10:56:32.202Z,59.54
2023-05-15T10:59:08.829Z,60.88
2023-05-15T11:01:38.699Z,60.83
2023-05-15T11:04:17.688Z,63.32
2023-05-15T11:06:49.419Z,60.42
2023-05-15T11:09:25.917Z,59.97
2023-05-15T11:11:57.158Z,60.85
2023-05-15T11:14:27.274Z,58.30
2023-05-15T11:16:55.789Z,59.15
2023-05-15T11:19:29.136Z,59.09
2023-05-15T11:22:01.193Z,62.00
2023-05-15T11:24:30.709Z,59.73
2023-05-15T11:27:03.029Z,61.06
2023-05-15T11:29:31.471Z,56.76
2023-05-15T11:31:59.713Z,58.10
2023-05-15T11:34:31.684Z,55.79
2023-05-15T11:37:02.616Z,60.09
2023-05-15T11:39:30.160Z,57.31
2023-05-15T11:41:58.235Z,58.29
2023-05-15T11:44:26.905Z,58.03
2023-05-15T11:46:55.263Z,59.01
2023-05-15T11:49:22.914Z,56.83
2023-05-15T11:51:51.320Z,57.39
2023-05-15T11:54:18.790Z,60.11
2023-05-15T11:56:47.224Z,57.89
2023-05-15T11:59:15.068Z,59.03
2023-05-15T12:01:43.970Z,58.26
2023-05-15T12:04:13.885Z,59.16
2023-05-15T12:06:41.800Z,57.98
2023-05-15T12:09:14.363Z,57.44
2023-05-15T12:11:42.055Z,59.18
2023-05-15T12:14:12.764Z,58.37
2023-05-15T12:16:40.110Z,57.72
2023-05-15T12:19:07.985Z,58.93
2023-05-15T12:21:37.697Z,58.37
2023-05-15T12:24:08.050Z,56.40
2023-05-15T12:26:36.448Z,56.41
2023-05-15T12:29:04.423Z,57.51
2023-05-15T12:31:33.493Z,55.70
2023-05-15T12:34:01.219Z,57.75
2023-05-15T12:36:31.695Z,58.50
2023-05-15T12:39:05.112Z,58.04
2023-05-15T12:41:32.786Z,56.59
2023-05-15T12:44:00.159Z,56.66
2023-05-15T12:46:31.866Z,55.20
2023-05-15T12:48:59.843Z,56.51
2023-05-15T12:51:29.808Z,54.95
2023-05-15T12:53:58.293Z,53.08
2023-05-15T12:56:26.428Z,53.10
2023-05-15T12:58:54.610Z,52.27
2023-05-15T13:01:22.168Z,52.64
2023-05-15T13:03:51.188Z,51.55
2023-05-15T13:06:18.845Z,49.68
2023-05-15T13:08:47.730Z,48.83
2023-05-15T13:11:18.238Z,50.74
2023-05-15T13:13:47.670Z,50.20
2023-05-15T13:16:22.794Z,50.03
2023-05-15T13:18:50.818Z,51.94
2023-05-15T13:21:18.562Z,51.86
2023-05-15T13:23:46.029Z,52.19
2023-05-15T13:26:13.923Z,50.23
2023-05-15T13:28:41.316Z,50.62
2023-05-15T13:31:08.810Z,50.71
2023-05-15T13:33:36.502Z,50.99
2023-05-15T13:36:04.093Z,51.94
2023-05-15T13:38:31.480Z,51.21
2023-05-15T13:40:59.320Z,53.85
2023-05-15T13:43:26.965Z,53.69
2023-05-15T13:45:54.489Z,51.13
2023-05-15T13:48:22.465Z,52.50
2023-05-15T13:50:49.857Z,52.97
2023-05-15T13:53:17.258Z,52.05
2023-05-15T13:55:46.275Z,50.03
2023-05-15T13:58:14.103Z,51.16
2023-05-15T14:00:43.185Z,51.86
2023-05-15T14:03:13.305Z,51.66
2023-05-15T14:05:42.322Z,50.82
2023-05-15T14:08:09.911Z,51.21
2023-05-15T14:10:37.667Z,49.17
2023-05-15T14:13:05.093Z,50.53
2023-05-15T14:15:32.469Z,49.97
2023-05-15T14:18:00.197Z,48.51
2023-05-15T14:20:27.744Z,50.01
2023-05-15T14:22:56.378Z,49.38
2023-05-15T14:25:24.520Z,49.61
2023-05-15T14:27:51.932Z,51.06
2023-05-15T14:30:22.024Z,49.36
2023-05-15T14:32:49.705Z,51.42
2023-05-15T14:35:17.137Z,51.21
2023-05-15T14:37:45.220Z,50.09
2023-05-15T14:40:14.329Z,51.49
2023-05-15T14:42:41.722Z,51.79
2023-05-15T14:45:09.690Z,52.01
2023-05-15T14:47:37.467Z,50.77
2023-05-15T14:50:05.136Z,55.72
2023-05-15T14:52:32.567Z,53.47
2023-05-15T14:57:35.073Z,52.32
2023-05-15T15:00:04.481Z,52.00
2023-05-15T15:02:32.211Z,53.42
2023-05-15T15:04:59.781Z,52.87
2023-05-15T15:07:29.581Z,52.88
2023-05-15T15:09:56.936Z,52.67
2023-05-15T15:12:24.313Z,53.13
2023-05-15T15:14:52.039Z,51.34
2023-05-15T15:17:19.428Z,51.75
2023-05-15T15:19:46.856Z,51.27
2023-05-15T15:22:14.549Z,53.10
2023-05-15T15:24:41.883Z,52.78
2023-05-15T15:27:09.256Z,53.08
2023-05-15T15:29:36.905Z,54.00
2023-05-15T15:32:04.518Z,55.35
2023-05-15T15:34:31.942Z,54.03
2023-05-15T15:36:59.714Z,55.04
2023-05-15T15:39:27.082Z,54.92
2023-05-15T15:41:54.929Z,54.85
2023-05-15T15:44:23.697Z,55.35
2023-05-15T15:46:51.115Z,54.57
2023-05-15T15:49:18.434Z,56.65
2023-05-15T15:51:46.094Z,55.97
2023-05-15T15:54:13.442Z,56.41
2023-05-15T15:56:42.867Z,56.55
2023-05-15T15:59:10.602Z,55.68
2023-05-15T16:01:38.097Z,56.06
2023-05-15T16:04:06.253Z,55.02
2023-05-15T16:06:34.182Z,55.95
2023-05-15T16:09:01.622Z,57.07
2023-05-15T16:11:29.683Z,56.78
2023-05-15T16:13:57.029Z,56.16
2023-05-15T16:16:24.636Z,57.32
2023-05-15T16:18:52.354Z,55.44
2023-05-15T16:21:20.991Z,56.77
2023-05-15T16:23:48.398Z,56.69
2023-05-15T16:26:16.108Z,54.70
2023-05-15T16:28:43.482Z,54.27
2023-05-15T16:31:10.929Z,57.87
2023-05-15T16:33:38.582Z,57.21
2023-05-15T16:36:06.085Z,58.38
2023-05-15T16:38:33.471Z,56.40
2023-05-15T16:41:02.254Z,55.43
2023-05-15T16:43:29.710Z,54.62
2023-05-15T16:45:57.069Z,55.30
2023-05-15T16:48:27.381Z,52.86
2023-05-15T16:50:55.238Z,54.99
2023-05-15T16:53:22.763Z,54.79
2023-05-15T16:55:50.883Z,55.80
2023-05-15T16:58:18.303Z,54.39
2023-05-15T17:00:45.781Z,54.42
2023-05-15T17:03:13.750Z,54.36
2023-05-15T17:05:41.339Z,54.11
2023-05-15T17:08:08.741Z,53.17
2023-05-15T17:10:36.470Z,52.98
2023-05-15T17:13:04.645Z,52.81
2023-05-15T17:15:32.197Z,53.90
2023-05-15T17:17:59.843Z,53.60
2023-05-15T17:20:27.251Z,54.07
2023-05-15T17:22:55.631Z,55.16
2023-05-15T17:25:23.486Z,55.97
2023-05-15T17:27:50.873Z,56.41
2023-05-15T17:30:18.447Z,55.72
2023-05-15T17:32:46.147Z,55.32
2023-05-15T17:35:13.781Z,56.66
2023-05-15T17:37:41.414Z,56.70
2023-05-15T17:40:09.276Z,57.24
2023-05-15T17:42:36.828Z,57.96
2023-05-15T17:45:04.625Z,57.75
2023-05-15T17:47:32.477Z,57.76
2023-05-15T17:49:59.929Z,58.37
2023-05-15T17:52:27.557Z,58.00
2023-05-15T17:54:55.285Z,57.77
2023-05-15T17:57:22.624Z,58.32
2023-05-15T17:59:50.055Z,58.19
2023-05-15T18:02:17.674Z,57.59
2023-05-15T18:04:45.339Z,58.02
2023-05-15T18:07:12.726Z,58.01
2023-05-15T18:09:40.199Z,57.09
2023-05-15T18:12:08.028Z,57.73
2023-05-15T18:14:35.400Z,57.97
2023-05-15T18:17:03.318Z,58.20
2023-05-15T18:19:31.004Z,58.05
2023-05-15T18:22:02.977Z,57.99
2023-05-15T18:24:31.073Z,58.79
2023-05-15T18:26:58.473Z,58.79
2023-05-15T18:29:26.050Z,58.52
2023-05-15T18:31:53.807Z,58.83
2023-05-15T18:34:21.211Z,58.79
2023-05-15T18:36:52.111Z,58.96
2023-05-15T18:39:20.224Z,58.87
2023-05-15T18:41:47.630Z,58.52
2023-05-15T18:44:15.137Z,58.42
2023-05-15T18:46:43.200Z,58.24
2023-05-15T18:49:10.675Z,58.02
2023-05-15T18:51:38.172Z,57.91
2023-05-15T18:54:08.080Z,58.94
2023-05-15T18:56:35.934Z,58.63
2023-05-15T18:59:03.326Z,59.14
2023-05-15T19:01:31.017Z,58.97
2023-05-15T19:03:58.433Z,59.65
2023-05-15T19:06:25.796Z,59.61
2023-05-15T19:08:53.445Z,59.26
2023-05-15T19:11:21.325Z,59.49
2023-05-15T19:13:48.668Z,59.88
2023-05-15T19:16:16.350Z,60.61
2023-05-15T19:18:43.826Z,60.78
2023-05-15T19:21:11.387Z,60.77
2023-05-15T19:23:39.063Z,60.38
2023-05-15T19:26:06.458Z,60.81
2023-05-15T19:28:34.069Z,61.56
2023-05-15T19:31:01.751Z,61.45
2023-05-15T19:33:29.460Z,61.71
2023-05-15T19:35:56.886Z,62.01
2023-05-15T19:38:24.587Z,61.82
2023-05-15T19:40:52.990Z,62.55
2023-05-15T19:43:20.364Z,63.01
2023-05-15T19:45:48.216Z,63.24
2023-05-15T19:48:15.651Z,63.37
2023-05-15T19:50:44.999Z,63.09
2023-05-15T19:53:12.974Z,63.10
2023-05-15T19:55:40.353Z,63.48
2023-05-15T19:58:07.739Z,63.00
2023-05-15T20:00:35.536Z,62.82
2023-05-15T20:03:03.240Z,63.03
2023-05-15T20:05:30.755Z,62.81
2023-05-15T20:07:58.434Z,63.85
2023-05-15T20:10:26.581Z,64.31
2023-05-15T20:12:54.334Z,64.31
2023-05-15T20:15:21.846Z,66.35
2023-05-15T20:17:49.668Z,66.73
2023-05-15T20:20:17.682Z,65.79
2023-05-15T20:22:45.124Z,65.61
2023-05-15T20:25:12.782Z,65.41
2023-05-15T20:27:40.176Z,64.30
2023-05-15T20:30:08.001Z,65.13
2023-05-15T20:32:36.229Z,64.75
2023-05-15T20:35:04.032Z,64.48
2023-05-15T20:37:31.943Z,65.15
2023-05-15T20:40:00.163Z,64.26
2023-05-15T20:42:28.493Z,63.89
2023-05-15T20:44:56.001Z,64.20
2023-05-15T20:47:23.811Z,63.64
2023-05-15T20:49:51.314Z,63.97
2023-05-15T20:52:19.080Z,64.24
2023-05-15T20:54:46.715Z,64.12
2023-05-15T20:57:14.198Z,64.21
2023-05-15T20:59:41.756Z,63.89
2023-05-15T21:02:09.443Z,63.89
2023-05-15T21:04:37.204Z,64.26
2023-05-15T21:07:04.616Z,64.43
2023-05-15T21:09:33.143Z,63.87
2023-05-15T21:12:00.524Z,64.20
2023-05-15T21:14:29.166Z,63.80
2023-05-15T21:16:56.955Z,63.28
2023-05-15T21:19:24.621Z,63.25
2023-05-15T21:21:52.106Z,62.32
2023-05-15T21:24:20.185Z,62.87
2023-05-15T21:26:47.561Z,63.21
2023-05-15T21:29:15.007Z,63.22
2023-05-15T21:31:42.767Z,63.10
2023-05-15T21:34:10.165Z,63.09
2023-05-15T21:36:37.634Z,63.52
2023-05-15T21:39:05.435Z,63.45
2023-05-15T21:41:33.229Z,63.13
2023-05-15T21:44:00.854Z,62.98
2023-05-15T21:46:28.557Z,63.68
2023-05-15T21:48:55.952Z,63.08
2023-05-15T21:51:23.350Z,63.33
2023-05-15T21:53:51.045Z,64.36
2023-05-15T21:56:18.477Z,64.12
2023-05-15T21:58:46.071Z,63.74
2023-05-15T22:01:15.078Z,64.30
2023-05-15T22:03:42.813Z,64.32
2023-05-15T22:06:10.614Z,64.17
2023-05-15T22:08:37.971Z,64.12
2023-05-15T22:11:06.706Z,64.10
2023-05-15T22:13:34.100Z,64.17
2023-05-15T22:16:01.420Z,63.70
2023-05-15T22:18:29.139Z,63.85
2023-05-15T22:20:57.504Z,64.37
2023-05-15T22:23:24.919Z,64.02
2023-05-15T22:25:53.630Z,63.92
2023-05-15T22:28:21.261Z,63.42
2023-05-15T22:30:48.603Z,63.82
2023-05-15T22:33:16.748Z,63.34
2023-05-15T22:35:44.560Z,63.03
2023-05-15T22:38:12.282Z,62.87
2023-05-15T22:40:39.954Z,63.17
2023-05-15T22:43:07.308Z,63.53
2023-05-15T22:45:34.722Z,63.47
2023-05-15T22:48:02.463Z,63.26
2023-05-15T22:50:29.862Z,63.15
2023-05-15T22:52:58.819Z,62.65
2023-05-15T22:55:26.932Z,62.21
2023-05-15T22:57:54.347Z,62.53
2023-05-15T23:00:21.770Z,61.93
2023-05-15T23:02:49.493Z,61.95
2023-05-15T23:05:16.953Z,62.49
2023-05-15T23:07:44.338Z,61.77
2023-05-15T23:10:12.057Z,62.26
2023-05-15T23:12:39.725Z,63.24
2023-05-15T23:15:10.405Z,63.40
2023-05-15T23:17:41.319Z,63.27
2023-05-15T23:20:13.476Z,63.40
2023-05-15T23:22:41.230Z,63.35
2023-05-15T23:25:09.018Z,63.87
2023-05-15T23:27:36.935Z,63.82
2023-05-15T23:30:05.794Z,64.13
2023-05-15T23:32:34.348Z,64.10
2023-05-15T23:35:01.983Z,64.14
2023-05-15T23:37:29.627Z,64.00
2023-05-15T23:39:57.065Z,63.66
2023-05-15T23:42:24.468Z,63.83
2023-05-15T23:44:52.136Z,63.89
2023-05-15T23:47:19.484Z,64.03
2023-05-15T23:49:46.930Z,64.54
2023-05-15T23:52:14.600Z,64.03
2023-05-15T23:54:41.971Z,65.15
2023-05-15T23:57:09.324Z,65.32
2023-05-15T23:59:36.945Z,65.05
